Rechercher aéroport 
image banner adimage banner adimage banner ad
image banner ad

P45 - Mount Pleasant/Scottdale

Situé à Mount Pleasant, United States

ICAO - P45, IATA -

Données fournies par Airmate  

Information générale

Coordonnées: N40°6'27" W79°32'35"
Élévation : 1160 feet MSL.
Variation magnétique : -08° East
Voir autres Aéroports à Pennsylvania

Données opérationnelles

Special qualification required
Heure actuelle UTC:
Heure actuelle locale:
Météo à : KLBE - Arnold Palmer Rgnl ( 22 km )
METAR: KLBE 131947Z 16003KT 15SM FEW060 SCT085 28/20 A2986
TAF: KLBE 131720Z 1318/1418 25005KT P6SM VCTS BKN050CB TEMPO 1320/1323 4SM -TSRA OVC040CB FM140100 24003KT P6SM SCT060 FM140600 25003KT 3SM BR BKN015 FM141300 23004KT P6SM SCT035
Voir NOTAMs / SUP AIP / TFR affectant cet aéroport [VIEW]
Fréquences de communication: [VIEW]

Pistes:

Identifiant RWYQFULongueur (ft)Largeur (ft)SurfaceLDA (ft)
0653°2158135GRASS
24233°2158135GRASS
14130°1641175GRASS
32310°1641175GRASS

Coordonnées de l'aéroport

Adresse: Mount Pleasant United States

Autres services d'aviation

Écoles de pilotage

Mt. Pleasant Airport Llc

Mt. Pleasant Airport Llc
n9ug@hotmail.com+1(724)220-5556

Vue satellite de P45